Trenton Mercer Airport
KTTN : now visible

Airfield :











YOU CAN JOIN US ON...

 
LOGIN :

Register | Disclaimer

   EN    FR    IT 

 









Legend :    VFR   Marginal VFR   IFR   Intensive IFR   Very Intensive IFR
Visi :
Ceiling :
>= 8 km
>= 3000ft
5 to 8 km
1000 to 3000 ft
1500m to 5 km
500 to 1000 ft
800 to 1500m
200 to 500 ft
< 800m
< 200 ft
Symbols :   Thunderstorms  Fog  Heavy snow  Heavy precipitations  Wind > 20 kt






- Airport Elevation : 213 ft
- IATA code : TTN


KTTN - Trenton Mercer

CURRENT METAR :
  • 180053Z 03010G15KT 10SM BKN023 OVC031 04/M01 A3009 RMK AO2 SLP186 T00391011

EXPIRED METARs :
  • 172353Z 04009KT 10SM OVC023 04/M01 A3012 RMK AO2 SLP194 T00441011 10061 20044 58011
  • 172253Z 04011KT 10SM OVC025 04/M02 A3013 RMK AO2 SLP200 T00441017

TAF KTTN
Valid from the 18 at 00:00 until the 19 at 00:00 UTC


172330Z 1800/1824 04011G19KT P6SM OVC025
FM180200 03011KT P6SM OVC015
FM180600 03011KT P6SM VCSH OVC015
FM181500 01008KT 5SM -RA OVC015
FM182300 VRB03KT 6SM BR OVC015



MET'MAP, your aeronautical weather chart ! - Copyright ORBIFLY December 2007 - Disclaimer

ORBIFLY MET'MAP TEAM :

Programming & Development : Alexandra Zaïnal
Concept & Development : Baudouin d'Aumeries
Co-Development & Prog : Marc-Olivier Méhu
Technical & hardware support : Manuel Goepfert

Contact : metmap@orbifly.com




SOURCES & CREDITS :

   NOAA       Earth
Advisory